Time;durP1;ratioP1;P1;durP2;ratioP2;P2;SDS_P1;SDS_P2;PMS_P1;PMS_P2;Temp;Humidity;BMP_temperature;BMP_pressure;BME280_temperature;BME280_humidity;BME280_pressure;Samples;Min_cycle;Max_cycle;Signal;HPM_P1;HPM_P2
2023/12/13 00:01:38;;;;;;;;;;;11.60;99.90;;;;;;5093519;28;19970;-80
2023/12/13 00:04:03;;;;;;;;;;;11.50;99.90;;;;;;5077110;28;19951;-80
2023/12/13 00:06:29;;;;;;;;;;;11.50;99.90;;;;;;5072827;28;19913;-80
2023/12/13 00:08:55;;;;;;;;;;;11.60;99.90;;;;;;5073302;28;19908;-79
2023/12/13 00:11:20;;;;;;;;;;;11.60;99.90;;;;;;5076813;28;20459;-76
2023/12/13 00:13:46;;;;;;;;;;;11.70;99.90;;;;;;5058799;28;19919;-82
2023/12/13 00:16:11;;;;;;;;;;;11.70;99.90;;;;;;5076708;28;19995;-81
2023/12/13 00:18:37;;;;;;;;;;;11.70;99.90;;;;;;5058641;28;19961;-81
2023/12/13 00:21:02;;;;;;;;;;;11.80;99.90;;;;;;5076844;28;19923;-76
2023/12/13 00:23:28;;;;;;;;;;;11.90;99.90;;;;;;5076554;28;19916;-82
2023/12/13 00:25:54;;;;;;;;;;;12.00;99.90;;;;;;5077100;28;19908;-83
2023/12/13 00:28:19;;;;;;;;;;;12.00;99.90;;;;;;5082815;28;19913;-82
2023/12/13 00:30:45;;;;;;;;;;;12.00;99.90;;;;;;5076673;28;19950;-83
2023/12/13 00:33:11;;;;;;;;;;;12.00;99.90;;;;;;5076644;28;19978;-82
2023/12/13 00:35:37;;;;;;;;;;;12.00;99.90;;;;;;5058522;28;19908;-83
2023/12/13 00:38:03;;;;;;;;;;;12.10;99.90;;;;;;5076298;28;19909;-83
2023/12/13 00:40:29;;;;;;;;;;;12.10;99.90;;;;;;5076193;28;19913;-82
2023/12/13 00:42:55;;;;;;;;;;;12.10;99.90;;;;;;5076362;28;19908;-82
2023/12/13 00:45:21;;;;;;;;;;;12.10;99.90;;;;;;5075853;28;20003;-83
2023/12/13 00:47:47;;;;;;;;;;;12.10;99.90;;;;;;5076420;28;19987;-83
2023/12/13 00:50:12;;;;;;;;;;;12.10;99.90;;;;;;5075984;28;19915;-77
2023/12/13 00:52:38;;;;;;;;;;;12.10;99.90;;;;;;5095733;28;19908;-82
2023/12/13 00:55:04;;;;;;;;;;;12.10;99.90;;;;;;5096424;28;19915;-82
2023/12/13 00:57:30;;;;;;;;;;;12.10;99.90;;;;;;5093254;28;19919;-82
2023/12/13 00:59:56;;;;;;;;;;;12.00;99.90;;;;;;5094947;28;19916;-82
2023/12/13 01:02:21;;;;;;;;;;;12.10;99.90;;;;;;5095832;28;20388;-82
2023/12/13 01:04:47;;;;;;;;;;;12.20;99.90;;;;;;5087077;28;19909;-82
2023/12/13 01:07:12;;;;;;;;;;;12.20;99.90;;;;;;5086316;28;19908;-83
2023/12/13 01:09:41;;;;;;;;;;;12.10;99.90;;;;;;5095958;28;20404;-78
2023/12/13 01:12:06;;;;;;;;;;;12.00;99.90;;;;;;5092824;28;19927;-78
2023/12/13 01:14:33;;;;;;;;;;;12.00;99.90;;;;;;5075361;28;19916;-83
2023/12/13 01:16:59;;;;;;;;;;;11.90;99.90;;;;;;5075842;28;19908;-77
2023/12/13 01:19:24;;;;;;;;;;;12.00;99.90;;;;;;5075409;28;19922;-83
2023/12/13 01:21:50;;;;;;;;;;;11.90;99.90;;;;;;5074243;28;19908;-82
2023/12/13 01:24:15;;;;;;;;;;;12.00;99.90;;;;;;5075502;28;19915;-82
2023/12/13 01:26:41;;;;;;;;;;;12.00;99.90;;;;;;5094797;28;20003;-82
2023/12/13 01:29:06;;;;;;;;;;;12.00;99.90;;;;;;5082546;28;20001;-82
2023/12/13 01:31:32;;;;;;;;;;;12.00;99.90;;;;;;5075339;28;19918;-83
2023/12/13 01:33:57;;;;;;;;;;;12.00;99.90;;;;;;5074916;28;19954;-82
2023/12/13 01:36:23;;;;;;;;;;;11.90;99.90;;;;;;5075213;28;19908;-82
2023/12/13 01:38:48;;;;;;;;;;;11.90;99.90;;;;;;5075514;28;20275;-77
2023/12/13 01:41:15;;;;;;;;;;;11.90;99.90;;;;;;5075005;28;20364;-81
2023/12/13 01:43:41;;;;;;;;;;;11.90;99.90;;;;;;5075079;28;19908;-82
2023/12/13 01:46:06;;;;;;;;;;;11.90;99.90;;;;;;5095306;28;20371;-82
2023/12/13 01:48:32;;;;;;;;;;;11.70;99.90;;;;;;5095504;28;19917;-82
2023/12/13 01:50:58;;;;;;;;;;;11.60;99.90;;;;;;5076472;28;20404;-82
2023/12/13 01:53:24;;;;;;;;;;;11.60;99.90;;;;;;5075132;28;20333;-83
2023/12/13 01:55:50;;;;;;;;;;;11.60;99.90;;;;;;5079897;28;19935;-82
2023/12/13 01:58:16;;;;;;;;;;;11.60;99.90;;;;;;5094875;28;20351;-82
2023/12/13 02:00:43;;;;;;;;;;;11.60;99.90;;;;;;5092978;28;19963;-82
2023/12/13 02:03:09;;;;;;;;;;;11.60;99.90;;;;;;5095085;28;19944;-82
2023/12/13 02:05:35;;;;;;;;;;;11.60;99.90;;;;;;5079453;28;19935;-82
2023/12/13 02:08:02;;;;;;;;;;;11.70;99.90;;;;;;5074561;28;19916;-82
2023/12/13 02:10:27;;;;;;;;;;;11.80;99.90;;;;;;5074575;28;20264;-82
2023/12/13 02:12:53;;;;;;;;;;;11.90;99.90;;;;;;5074809;28;19912;-81
2023/12/13 02:15:19;;;;;;;;;;;11.90;99.90;;;;;;5074472;28;20062;-82
2023/12/13 02:17:51;;;;;;;;;;;11.90;99.90;;;;;;5056484;28;19913;-82
2023/12/13 02:20:17;;;;;;;;;;;11.70;99.90;;;;;;5074200;28;19927;-82
2023/12/13 02:22:43;;;;;;;;;;;11.60;99.90;;;;;;5074640;28;19908;-82
2023/12/13 02:25:14;;;;;;;;;;;11.50;99.90;;;;;;5074283;28;20014;-82
2023/12/13 02:27:40;;;;;;;;;;;11.40;99.90;;;;;;5078614;28;19916;-82
2023/12/13 02:30:06;;;;;;;;;;;11.50;99.90;;;;;;5085569;28;19916;-82
2023/12/13 02:32:32;;;;;;;;;;;11.40;99.90;;;;;;5093166;28;19979;-82
2023/12/13 02:34:57;;;;;;;;;;;11.40;99.90;;;;;;5080316;28;19955;-82
2023/12/13 02:37:24;;;;;;;;;;;11.30;99.90;;;;;;5073865;28;19908;-82
2023/12/13 02:39:49;;;;;;;;;;;11.30;99.90;;;;;;5073864;28;20398;-77
2023/12/13 02:42:15;;;;;;;;;;;11.30;99.90;;;;;;5073987;28;19909;-83
2023/12/13 02:44:43;;;;;;;;;;;11.30;99.90;;;;;;5073502;28;20370;-82
2023/12/13 02:47:09;;;;;;;;;;;11.40;99.90;;;;;;5074215;28;19908;-82
2023/12/13 02:49:34;;;;;;;;;;;11.40;99.90;;;;;;5094125;28;20366;-82
2023/12/13 02:52:00;;;;;;;;;;;11.50;99.90;;;;;;5094108;28;19937;-82
2023/12/13 02:54:25;;;;;;;;;;;11.50;99.90;;;;;;5093940;28;19908;-82
2023/12/13 02:56:51;;;;;;;;;;;11.60;99.90;;;;;;5093204;28;19912;-82
2023/12/13 02:59:16;;;;;;;;;;;11.60;99.90;;;;;;5076328;28;20013;-82
2023/12/13 03:01:42;;;;;;;;;;;11.50;99.90;;;;;;5074617;28;20371;-82
2023/12/13 03:04:07;;;;;;;;;;;11.50;99.90;;;;;;5073576;28;19909;-82
2023/12/13 03:06:33;;;;;;;;;;;11.40;99.90;;;;;;5092613;28;19915;-77
2023/12/13 03:08:58;;;;;;;;;;;11.30;99.90;;;;;;5092338;28;19934;-82
2023/12/13 03:11:24;;;;;;;;;;;11.30;99.90;;;;;;5073393;28;19963;-82
2023/12/13 03:13:50;;;;;;;;;;;11.30;99.90;;;;;;5073502;28;19916;-81
2023/12/13 03:16:15;;;;;;;;;;;11.30;99.90;;;;;;5073708;28;19931;-82
2023/12/13 03:18:41;;;;;;;;;;;11.40;99.90;;;;;;5073447;28;19999;-82
2023/12/13 03:21:07;;;;;;;;;;;11.30;99.90;;;;;;5073480;28;20264;-81
2023/12/13 03:23:32;;;;;;;;;;;11.20;99.90;;;;;;5073462;28;19909;-82
2023/12/13 03:25:58;;;;;;;;;;;11.20;99.90;;;;;;5073609;28;20424;-82
2023/12/13 03:28:23;;;;;;;;;;;11.20;99.90;;;;;;5077001;28;19954;-82
2023/12/13 03:30:48;;;;;;;;;;;11.20;99.90;;;;;;5087513;28;19919;-82
2023/12/13 03:33:14;;;;;;;;;;;11.20;99.90;;;;;;5093030;28;19912;-78
2023/12/13 03:35:40;;;;;;;;;;;11.10;99.90;;;;;;5092984;28;20290;-82
2023/12/13 03:38:05;;;;;;;;;;;11.10;99.90;;;;;;5076472;28;20390;-82
2023/12/13 03:40:31;;;;;;;;;;;11.00;99.90;;;;;;5072994;28;20015;-82
2023/12/13 03:42:56;;;;;;;;;;;11.00;99.90;;;;;;5073208;28;19915;-82
2023/12/13 03:45:24;;;;;;;;;;;11.00;99.90;;;;;;5072408;28;19912;-81
2023/12/13 03:47:49;;;;;;;;;;;11.00;99.90;;;;;;5093183;28;20412;-81
2023/12/13 03:50:15;;;;;;;;;;;11.00;99.90;;;;;;5093306;28;19908;-82
2023/12/13 03:52:40;;;;;;;;;;;11.00;99.90;;;;;;5093390;28;19908;-81
2023/12/13 03:55:07;;;;;;;;;;;11.00;99.90;;;;;;5093583;28;19950;-82
2023/12/13 03:57:32;;;;;;;;;;;11.00;99.90;;;;;;5085773;28;19930;-81
2023/12/13 03:59:58;;;;;;;;;;;11.10;99.90;;;;;;5093154;28;20378;-78
2023/12/13 04:02:23;;;;;;;;;;;11.10;99.90;;;;;;5081731;28;19909;-82
2023/12/13 04:04:49;;;;;;;;;;;11.20;99.90;;;;;;5076031;28;19913;-82
2023/12/13 04:07:15;;;;;;;;;;;11.20;99.90;;;;;;5072338;28;19955;-78
2023/12/13 04:09:40;;;;;;;;;;;11.10;99.90;;;;;;5073437;28;19913;-82
2023/12/13 04:12:06;;;;;;;;;;;11.10;99.90;;;;;;5092951;28;19927;-82
2023/12/13 04:14:31;;;;;;;;;;;11.20;99.90;;;;;;5093400;28;19920;-82
2023/12/13 04:16:57;;;;;;;;;;;11.30;99.90;;;;;;5093060;28;19908;-82
2023/12/13 04:19:23;;;;;;;;;;;11.30;99.90;;;;;;5092900;28;20325;-82
2023/12/13 04:21:48;;;;;;;;;;;11.40;99.90;;;;;;5092457;28;19908;-82
2023/12/13 04:24:14;;;;;;;;;;;11.40;99.90;;;;;;5092957;28;19958;-78
2023/12/13 04:26:40;;;;;;;;;;;11.50;99.90;;;;;;5073568;28;20276;-82
2023/12/13 04:29:05;;;;;;;;;;;11.60;99.90;;;;;;5081434;28;19960;-82
2023/12/13 04:31:31;;;;;;;;;;;11.70;99.90;;;;;;5072761;28;20372;-83
2023/12/13 04:33:56;;;;;;;;;;;11.60;99.90;;;;;;5072591;28;19913;-82
2023/12/13 04:36:22;;;;;;;;;;;11.60;99.90;;;;;;5072341;28;19915;-81
2023/12/13 04:38:48;;;;;;;;;;;11.50;99.90;;;;;;5072630;28;19999;-81
2023/12/13 04:41:13;;;;;;;;;;;11.50;99.90;;;;;;5072884;28;20398;-82
2023/12/13 04:43:39;;;;;;;;;;;11.50;99.90;;;;;;5072225;28;19919;-82
2023/12/13 04:46:05;;;;;;;;;;;11.50;99.90;;;;;;5093007;28;19908;-82
2023/12/13 04:48:30;;;;;;;;;;;11.50;99.90;;;;;;5092764;28;20340;-82
2023/12/13 04:50:57;;;;;;;;;;;11.50;99.90;;;;;;5080446;28;19920;-78
2023/12/13 04:53:22;;;;;;;;;;;11.40;99.90;;;;;;5072407;28;19951;-78
2023/12/13 04:55:48;;;;;;;;;;;11.40;99.90;;;;;;5078303;28;19958;-82
2023/12/13 04:58:13;;;;;;;;;;;11.30;99.90;;;;;;5081081;28;20414;-78
2023/12/13 05:00:39;;;;;;;;;;;11.40;99.90;;;;;;5075460;28;20005;-82
2023/12/13 05:03:04;;;;;;;;;;;11.40;99.90;;;;;;5093044;28;19912;-81
2023/12/13 05:05:30;;;;;;;;;;;11.40;99.90;;;;;;5081686;28;20371;-82
2023/12/13 05:07:55;;;;;;;;;;;11.40;99.90;;;;;;5095630;28;19908;-82
2023/12/13 05:10:21;;;;;;;;;;;11.40;99.90;;;;;;5096012;28;19919;-78
2023/12/13 05:12:47;;;;;;;;;;;11.40;99.90;;;;;;5096233;28;20011;-78
2023/12/13 05:15:12;;;;;;;;;;;11.30;99.90;;;;;;5096165;28;20370;-78
2023/12/13 05:17:38;;;;;;;;;;;11.30;99.90;;;;;;5077207;28;19919;-78
2023/12/13 05:20:04;;;;;;;;;;;11.30;99.90;;;;;;5070899;28;20271;-78
2023/12/13 05:22:29;;;;;;;;;;;11.30;99.90;;;;;;5092950;28;19958;-82
2023/12/13 05:24:55;;;;;;;;;;;11.20;99.90;;;;;;5083084;28;19958;-81
2023/12/13 05:27:20;;;;;;;;;;;11.30;99.90;;;;;;5091986;28;20278;-81
2023/12/13 05:29:46;;;;;;;;;;;11.30;99.90;;;;;;5085562;28;19909;-78
2023/12/13 05:32:11;;;;;;;;;;;11.30;99.90;;;;;;5075510;28;19912;-81
2023/12/13 05:34:37;;;;;;;;;;;11.40;99.90;;;;;;5073291;28;20391;-81
2023/12/13 05:37:05;;;;;;;;;;;11.40;99.90;;;;;;5074687;28;19916;-76
2023/12/13 05:39:33;;;;;;;;;;;11.30;99.90;;;;;;5075064;28;19912;-80
2023/12/13 05:41:58;;;;;;;;;;;11.20;99.90;;;;;;5075016;28;19909;-78
2023/12/13 05:44:24;;;;;;;;;;;11.10;99.90;;;;;;5074817;28;19959;-78
2023/12/13 05:46:49;;;;;;;;;;;11.10;99.90;;;;;;5075117;28;19939;-79
2023/12/13 05:49:15;;;;;;;;;;;11.00;99.90;;;;;;5075049;28;20387;-79
2023/12/13 05:51:40;;;;;;;;;;;10.90;99.90;;;;;;5074784;28;19908;-78
2023/12/13 05:54:06;;;;;;;;;;;10.70;99.90;;;;;;5074823;28;19909;-78
2023/12/13 05:56:32;;;;;;;;;;;10.50;99.90;;;;;;5074910;28;20341;-79
2023/12/13 05:58:57;;;;;;;;;;;10.30;99.90;;;;;;5092630;28;19912;-79
2023/12/13 06:01:23;;;;;;;;;;;10.30;99.90;;;;;;5092130;28;20401;-80
2023/12/13 06:03:48;;;;;;;;;;;10.20;99.90;;;;;;5076398;28;19908;-80
2023/12/13 06:06:14;;;;;;;;;;;10.10;99.90;;;;;;5074651;28;19913;-80
2023/12/13 06:08:40;;;;;;;;;;;10.10;99.90;;;;;;5073708;28;19975;-80
2023/12/13 06:11:07;;;;;;;;;;;10.10;99.90;;;;;;5074527;28;20410;-80
2023/12/13 06:13:32;;;;;;;;;;;10.10;99.90;;;;;;5074374;28;19951;-81
2023/12/13 06:15:58;;;;;;;;;;;10.10;99.90;;;;;;5074615;28;19940;-81
2023/12/13 06:18:23;;;;;;;;;;;10.10;99.90;;;;;;5074527;28;19968;-80
2023/12/13 06:20:51;;;;;;;;;;;10.20;99.90;;;;;;5086052;28;20480;-77
2023/12/13 06:23:16;;;;;;;;;;;10.30;99.90;;;;;;5077192;28;20394;-80
2023/12/13 06:25:42;;;;;;;;;;;10.30;99.90;;;;;;5073949;28;19908;-81
2023/12/13 06:28:08;;;;;;;;;;;10.30;99.90;;;;;;5076969;28;19920;-80
2023/12/13 06:30:33;;;;;;;;;;;10.40;99.90;;;;;;5082841;28;19909;-77
2023/12/13 06:32:59;;;;;;;;;;;10.50;99.90;;;;;;5089755;28;20007;-77
2023/12/13 06:35:24;;;;;;;;;;;10.50;99.90;;;;;;5085884;28;19918;-77
2023/12/13 06:37:50;;;;;;;;;;;10.40;99.90;;;;;;5076672;28;20010;-79
2023/12/13 06:40:16;;;;;;;;;;;10.40;99.90;;;;;;5076690;28;19916;-77
2023/12/13 06:42:41;;;;;;;;;;;10.30;99.90;;;;;;5072234;28;19913;-77
2023/12/13 06:45:08;;;;;;;;;;;10.30;99.90;;;;;;5082190;28;19936;-77
2023/12/13 06:47:34;;;;;;;;;;;10.20;99.90;;;;;;5084497;28;20046;-77
2023/12/13 06:49:59;;;;;;;;;;;10.10;99.90;;;;;;5073491;28;20067;-79
2023/12/13 06:52:25;;;;;;;;;;;10.00;99.90;;;;;;5081577;28;19913;-79
2023/12/13 06:54:50;;;;;;;;;;;10.00;99.90;;;;;;5088301;28;19912;-79
2023/12/13 06:57:16;;;;;;;;;;;9.90;99.90;;;;;;5079056;28;20307;-79
2023/12/13 06:59:42;;;;;;;;;;;9.90;99.90;;;;;;5076448;28;19923;-79
2023/12/13 07:02:07;;;;;;;;;;;10.00;99.90;;;;;;5077727;28;19917;-78
2023/12/13 07:04:35;;;;;;;;;;;10.00;99.90;;;;;;5079995;28;19967;-80
2023/12/13 07:07:00;;;;;;;;;;;9.90;99.90;;;;;;5075812;28;19916;-80
2023/12/13 07:09:26;;;;;;;;;;;9.90;99.90;;;;;;5077513;28;20279;-78
2023/12/13 07:11:51;;;;;;;;;;;9.90;99.90;;;;;;5086866;28;20011;-78
2023/12/13 07:14:17;;;;;;;;;;;10.00;99.90;;;;;;5087225;28;19917;-80
2023/12/13 07:16:43;;;;;;;;;;;10.00;99.90;;;;;;5089390;28;19912;-80
2023/12/13 07:19:09;;;;;;;;;;;10.00;99.90;;;;;;5088841;28;19916;-78
2023/12/13 07:21:34;;;;;;;;;;;10.00;99.90;;;;;;5087063;28;19922;-78
2023/12/13 07:24:00;;;;;;;;;;;10.00;99.90;;;;;;5072770;28;19923;-80
2023/12/13 07:26:25;;;;;;;;;;;10.00;99.90;;;;;;5070763;28;19916;-79
2023/12/13 07:28:51;;;;;;;;;;;10.00;99.90;;;;;;5082220;28;20413;-79
2023/12/13 07:31:16;;;;;;;;;;;9.90;99.90;;;;;;5080135;28;19916;-78
2023/12/13 07:33:42;;;;;;;;;;;9.90;99.90;;;;;;5076318;28;20349;-79
2023/12/13 07:36:07;;;;;;;;;;;9.90;99.90;;;;;;5079967;28;19916;-78
2023/12/13 07:38:33;;;;;;;;;;;10.00;99.90;;;;;;5073665;28;20379;-79
2023/12/13 07:40:58;;;;;;;;;;;10.00;99.90;;;;;;5076614;28;19920;-79
2023/12/13 07:43:26;;;;;;;;;;;10.10;99.90;;;;;;5077617;28;19925;-78
2023/12/13 07:45:52;;;;;;;;;;;10.10;99.90;;;;;;5072674;28;19924;-79
2023/12/13 07:48:18;;;;;;;;;;;10.20;99.90;;;;;;5082225;28;19916;-78
2023/12/13 07:50:44;;;;;;;;;;;10.30;99.90;;;;;;5078223;28;19920;-79
2023/12/13 07:53:10;;;;;;;;;;;10.30;99.90;;;;;;5070808;28;19925;-78
2023/12/13 07:55:35;;;;;;;;;;;10.30;99.90;;;;;;5074449;28;20468;-80
2023/12/13 07:58:00;;;;;;;;;;;10.30;99.90;;;;;;5075184;28;19923;-79
2023/12/13 08:00:26;;;;;;;;;;;10.30;99.90;;;;;;5078921;28;19924;-77
2023/12/13 08:02:51;;;;;;;;;;;10.30;99.90;;;;;;5085637;28;20031;-79
2023/12/13 08:05:19;;;;;;;;;;;10.30;99.90;;;;;;5069135;28;20023;-78
2023/12/13 08:07:45;;;;;;;;;;;10.20;99.90;;;;;;5067228;28;19978;-78
2023/12/13 08:10:10;;;;;;;;;;;10.20;99.90;;;;;;5072585;28;20426;-77
2023/12/13 08:12:36;;;;;;;;;;;10.20;99.90;;;;;;5069717;28;19936;-78
2023/12/13 08:15:02;;;;;;;;;;;10.20;99.90;;;;;;5071119;28;20414;-77
2023/12/13 08:17:29;;;;;;;;;;;10.20;99.90;;;;;;5070529;28;19923;-78
2023/12/13 08:19:54;;;;;;;;;;;10.20;99.90;;;;;;5073759;28;19920;-78
2023/12/13 08:22:20;;;;;;;;;;;10.20;99.90;;;;;;5075445;28;19924;-77
2023/12/13 08:24:45;;;;;;;;;;;10.20;99.90;;;;;;5072873;28;19935;-78
2023/12/13 08:27:11;;;;;;;;;;;10.20;99.90;;;;;;5067931;28;19916;-77
2023/12/13 08:29:36;;;;;;;;;;;10.20;99.90;;;;;;5076830;28;19922;-78
2023/12/13 08:32:02;;;;;;;;;;;10.20;99.90;;;;;;5071621;28;19997;-79
2023/12/13 08:34:27;;;;;;;;;;;10.20;99.90;;;;;;5081340;28;19947;-78
2023/12/13 08:36:53;;;;;;;;;;;10.20;99.90;;;;;;5075699;28;20002;-78
2023/12/13 08:39:21;;;;;;;;;;;10.20;99.90;;;;;;5081602;28;19924;-78
2023/12/13 08:41:47;;;;;;;;;;;10.20;99.90;;;;;;5079019;28;19969;-77
2023/12/13 08:44:13;;;;;;;;;;;10.20;99.90;;;;;;5074184;28;19920;-77
2023/12/13 08:46:38;;;;;;;;;;;10.20;99.90;;;;;;5074602;28;19917;-77
2023/12/13 08:49:04;;;;;;;;;;;10.30;99.90;;;;;;5073825;28;20020;-79
2023/12/13 08:51:30;;;;;;;;;;;10.30;99.90;;;;;;5078278;28;19920;-78
2023/12/13 08:53:55;;;;;;;;;;;10.30;99.90;;;;;;5081739;28;19913;-78
2023/12/13 08:56:21;;;;;;;;;;;10.30;99.90;;;;;;5078334;28;19920;-78
2023/12/13 08:58:46;;;;;;;;;;;10.30;99.90;;;;;;5075117;28;19924;-78
2023/12/13 09:01:12;;;;;;;;;;;10.30;99.90;;;;;;5079744;28;19920;-78
2023/12/13 09:03:38;;;;;;;;;;;10.40;99.90;;;;;;5075831;28;20011;-79
2023/12/13 09:06:03;;;;;;;;;;;10.40;99.90;;;;;;5078537;28;19912;-79
2023/12/13 09:08:29;;;;;;;;;;;10.40;99.90;;;;;;5078295;28;19935;-79
2023/12/13 09:10:55;;;;;;;;;;;10.40;99.90;;;;;;5072285;28;19967;-79
2023/12/13 09:13:20;;;;;;;;;;;10.40;99.90;;;;;;5076307;28;19931;-80
2023/12/13 09:15:46;;;;;;;;;;;10.40;99.90;;;;;;5079934;28;19974;-81
2023/12/13 09:18:11;;;;;;;;;;;10.40;99.90;;;;;;5078469;28;19916;-81
2023/12/13 09:20:37;;;;;;;;;;;10.40;99.90;;;;;;5075027;28;19990;-79
2023/12/13 09:23:04;;;;;;;;;;;10.50;99.90;;;;;;5073115;28;19960;-78
2023/12/13 09:25:30;;;;;;;;;;;10.60;99.90;;;;;;5075590;28;19922;-80
2023/12/13 09:27:55;;;;;;;;;;;10.90;99.90;;;;;;5078143;28;19920;-80
2023/12/13 09:30:21;;;;;;;;;;;11.10;99.90;;;;;;5076470;28;20342;-80
2023/12/13 09:32:46;;;;;;;;;;;11.30;99.90;;;;;;5072450;28;19924;-80
2023/12/13 09:35:12;;;;;;;;;;;11.20;99.90;;;;;;5072394;28;19924;-80
2023/12/13 09:37:37;;;;;;;;;;;11.30;99.90;;;;;;5072641;28;19999;-80
2023/12/13 09:40:03;;;;;;;;;;;11.20;99.90;;;;;;5072496;28;19966;-80
2023/12/13 09:42:29;;;;;;;;;;;11.40;99.90;;;;;;5071150;28;20291;-80
2023/12/13 09:44:55;;;;;;;;;;;11.60;99.90;;;;;;5074280;28;20266;-80
2023/12/13 09:47:22;;;;;;;;;;;11.70;99.90;;;;;;5072282;28;19973;-80
2023/12/13 09:49:49;;;;;;;;;;;11.90;99.90;;;;;;5072243;28;20390;-80
2023/12/13 09:52:17;;;;;;;;;;;12.00;99.90;;;;;;5071381;28;19913;-80
2023/12/13 09:54:44;;;;;;;;;;;11.90;99.90;;;;;;5073800;28;19916;-80
2023/12/13 09:57:09;;;;;;;;;;;11.80;99.90;;;;;;5071175;28;20397;-80
2023/12/13 09:59:36;;;;;;;;;;;11.70;99.90;;;;;;5070681;28;19927;-80
2023/12/13 10:02:01;;;;;;;;;;;11.70;99.90;;;;;;5073022;28;19916;-81
2023/12/13 10:04:28;;;;;;;;;;;11.80;99.90;;;;;;5078113;28;19943;-80
2023/12/13 10:06:54;;;;;;;;;;;12.00;99.90;;;;;;5077253;28;19920;-80
2023/12/13 10:09:19;;;;;;;;;;;12.30;99.90;;;;;;5076775;28;19919;-80
2023/12/13 10:11:45;;;;;;;;;;;12.40;99.90;;;;;;5080205;28;20482;-80
2023/12/13 10:14:11;;;;;;;;;;;12.60;99.90;;;;;;5070610;28;19916;-80
2023/12/13 10:16:39;;;;;;;;;;;12.70;99.90;;;;;;5076234;28;20358;-81
2023/12/13 10:19:08;;;;;;;;;;;12.80;99.90;;;;;;5071943;28;20067;-80
2023/12/13 10:21:34;;;;;;;;;;;12.60;99.90;;;;;;5073514;28;20367;-80
2023/12/13 10:24:00;;;;;;;;;;;12.40;99.90;;;;;;5071689;28;19927;-81
2023/12/13 10:26:25;;;;;;;;;;;12.20;99.90;;;;;;5071800;28;20023;-80
2023/12/13 10:28:52;;;;;;;;;;;12.00;99.90;;;;;;5080178;28;19920;-81
2023/12/13 10:31:20;;;;;;;;;;;11.80;99.90;;;;;;5076993;28;19921;-81
2023/12/13 10:33:46;;;;;;;;;;;11.60;99.90;;;;;;5075909;28;20011;-81
2023/12/13 10:36:12;;;;;;;;;;;11.50;99.90;;;;;;5071436;28;20278;-81
2023/12/13 10:38:38;;;;;;;;;;;11.30;99.90;;;;;;5070992;28;19916;-81
2023/12/13 10:41:05;;;;;;;;;;;11.20;99.90;;;;;;5072585;28;19916;-81
2023/12/13 10:43:31;;;;;;;;;;;11.10;99.90;;;;;;5066259;28;19923;-80
2023/12/13 10:45:59;;;;;;;;;;;11.10;99.90;;;;;;5075869;28;19913;-80
2023/12/13 10:48:27;;;;;;;;;;;11.40;99.90;;;;;;5061875;28;19916;-81
2023/12/13 10:50:55;;;;;;;;;;;11.70;99.90;;;;;;5069916;28;19917;-81
2023/12/13 10:53:20;;;;;;;;;;;12.00;99.90;;;;;;5071657;28;19951;-82
2023/12/13 10:55:47;;;;;;;;;;;12.30;99.90;;;;;;5070989;28;20000;-82
2023/12/13 10:58:12;;;;;;;;;;;12.40;99.90;;;;;;5069698;28;19913;-81
2023/12/13 11:00:38;;;;;;;;;;;12.40;99.90;;;;;;5071975;28;19927;-80
2023/12/13 11:03:17;;;;;;;;;;;12.30;99.90;;;;;;5070252;28;19916;-79
2023/12/13 11:05:42;;;;;;;;;;;12.20;99.90;;;;;;5074196;28;19912;-80
2023/12/13 11:08:16;;;;;;;;;;;12.20;99.90;;;;;;5072598;28;20031;-82
2023/12/13 11:10:52;;;;;;;;;;;12.20;99.90;;;;;;5071013;28;19998;-81
2023/12/13 11:13:22;;;;;;;;;;;12.30;99.90;;;;;;5077017;28;19920;-81
2023/12/13 11:15:47;;;;;;;;;;;12.30;99.90;;;;;;5084899;28;19913;-81
2023/12/13 11:18:14;;;;;;;;;;;12.40;99.90;;;;;;5070886;28;19920;-80
2023/12/13 11:20:47;;;;;;;;;;;12.50;99.90;;;;;;5071276;28;20379;-81
2023/12/13 11:23:14;;;;;;;;;;;12.50;99.90;;;;;;5076945;28;19916;-81
2023/12/13 11:25:40;;;;;;;;;;;12.30;99.90;;;;;;5083843;28;19908;-80
2023/12/13 11:28:05;;;;;;;;;;;12.30;99.90;;;;;;5072643;28;19920;-80
2023/12/13 11:30:31;;;;;;;;;;;12.40;99.90;;;;;;5079175;28;19909;-80
2023/12/13 11:32:57;;;;;;;;;;;12.40;99.90;;;;;;5075073;28;19912;-80
2023/12/13 11:35:23;;;;;;;;;;;12.40;99.90;;;;;;5083267;28;20371;-82
2023/12/13 11:37:53;;;;;;;;;;;12.50;99.90;;;;;;5076360;28;20013;-80
2023/12/13 11:40:19;;;;;;;;;;;12.40;99.90;;;;;;5086259;28;19959;-82
2023/12/13 11:42:45;;;;;;;;;;;12.50;99.90;;;;;;5076194;28;20007;-80
2023/12/13 11:45:11;;;;;;;;;;;12.40;99.90;;;;;;5075325;28;20008;-80
2023/12/13 11:47:37;;;;;;;;;;;12.60;99.90;;;;;;5070678;28;19955;-81
2023/12/13 11:50:03;;;;;;;;;;;12.90;99.90;;;;;;5070473;28;19915;-82
2023/12/13 12:24:38;;;;;;;;;;;13.10;99.90;;;;;;5435880;22;19928;-95
2023/12/13 12:27:10;;;;;;;;;;;13.20;99.90;;;;;;5071435;28;19912;-95
2023/12/13 12:29:35;;;;;;;;;;;13.30;99.90;;;;;;5126590;22;19956;-79
2023/12/13 12:32:01;;;;;;;;;;;13.50;99.90;;;;;;5053501;28;19971;-81
2023/12/13 12:34:26;;;;;;;;;;;13.30;99.90;;;;;;5051023;28;19916;-79
2023/12/13 12:36:53;;;;;;;;;;;13.30;99.90;;;;;;5083224;28;19923;-80
2023/12/13 12:39:19;;;;;;;;;;;13.50;99.90;;;;;;5062762;28;19924;-80
2023/12/13 12:41:44;;;;;;;;;;;13.60;99.90;;;;;;5057825;28;20367;-80
2023/12/13 12:44:10;;;;;;;;;;;13.60;99.90;;;;;;5075570;28;19926;-79
2023/12/13 12:46:35;;;;;;;;;;;13.90;99.90;;;;;;5051370;28;20391;-80
2023/12/13 12:49:01;;;;;;;;;;;14.00;99.90;;;;;;5089951;28;20382;-81
2023/12/13 12:51:26;;;;;;;;;;;14.10;99.90;;;;;;5051293;28;19978;-81
2023/12/13 12:53:52;;;;;;;;;;;14.10;99.90;;;;;;5063529;28;19913;-79
2023/12/13 12:56:17;;;;;;;;;;;14.10;99.90;;;;;;5058004;28;19912;-80
2023/12/13 12:58:43;;;;;;;;;;;14.20;99.90;;;;;;5046999;28;20340;-80
2023/12/13 13:01:08;;;;;;;;;;;14.20;99.90;;;;;;5073312;28;19913;-82
2023/12/13 13:03:34;;;;;;;;;;;14.00;99.90;;;;;;5075590;28;20034;-80
2023/12/13 13:06:00;;;;;;;;;;;13.90;99.90;;;;;;5045908;28;19940;-80
2023/12/13 13:08:25;;;;;;;;;;;13.80;99.90;;;;;;5047483;28;19924;-79
2023/12/13 13:10:51;;;;;;;;;;;13.80;99.90;;;;;;5065164;28;20283;-81
2023/12/13 13:13:16;;;;;;;;;;;14.40;99.90;;;;;;5067558;28;19920;-79
2023/12/13 13:15:42;;;;;;;;;;;14.40;99.90;;;;;;5070959;28;19961;-81
2023/12/13 13:18:08;;;;;;;;;;;14.10;99.90;;;;;;5051111;28;19913;-79
2023/12/13 13:20:34;;;;;;;;;;;13.90;99.90;;;;;;5049199;28;19924;-81
2023/12/13 13:23:00;;;;;;;;;;;14.10;99.90;;;;;;5043533;28;19921;-79
2023/12/13 13:25:25;;;;;;;;;;;14.50;99.90;;;;;;5063762;28;19923;-80
2023/12/13 13:27:53;;;;;;;;;;;14.80;99.90;;;;;;5043374;28;20354;-78
2023/12/13 13:30:19;;;;;;;;;;;14.50;99.90;;;;;;5059141;28;19921;-78
2023/12/13 13:32:45;;;;;;;;;;;14.20;99.90;;;;;;5037784;28;19916;-81
2023/12/13 13:35:10;;;;;;;;;;;14.10;99.90;;;;;;5070992;28;20359;-81
2023/12/13 13:37:36;;;;;;;;;;;14.00;99.90;;;;;;5039523;28;19960;-81
2023/12/13 13:40:02;;;;;;;;;;;14.10;99.90;;;;;;5037467;28;19966;-81
2023/12/13 13:42:28;;;;;;;;;;;13.80;99.90;;;;;;5054946;28;19920;-80
2023/12/13 13:44:53;;;;;;;;;;;13.50;99.90;;;;;;5035244;28;19924;-81
2023/12/13 13:47:19;;;;;;;;;;;13.30;99.90;;;;;;5065296;28;19901;-83
2023/12/13 13:49:44;;;;;;;;;;;13.20;99.90;;;;;;5059926;28;19909;-83
2023/12/13 13:52:10;;;;;;;;;;;13.30;99.90;;;;;;5065370;28;19913;-80
2023/12/13 13:54:35;;;;;;;;;;;13.10;99.90;;;;;;5037408;28;19971;-85
2023/12/13 13:57:04;;;;;;;;;;;13.20;99.90;;;;;;5037108;28;19909;-85
2023/12/13 13:59:29;;;;;;;;;;;13.20;99.90;;;;;;5037612;28;20379;-84
2023/12/13 14:01:55;;;;;;;;;;;13.10;99.90;;;;;;5036873;28;19909;-80
2023/12/13 14:04:21;;;;;;;;;;;13.10;99.90;;;;;;5037054;28;19909;-80
2023/12/13 14:06:47;;;;;;;;;;;12.90;99.90;;;;;;5055115;28;19948;-84
2023/12/13 14:09:12;;;;;;;;;;;12.90;99.90;;;;;;5052529;28;19901;-80
2023/12/13 14:11:38;;;;;;;;;;;12.80;99.90;;;;;;5056347;28;19908;-84
2023/12/13 14:14:03;;;;;;;;;;;12.70;99.90;;;;;;5042101;28;19913;-84
2023/12/13 14:16:29;;;;;;;;;;;12.70;99.90;;;;;;5057611;28;20312;-82
2023/12/13 14:18:54;;;;;;;;;;;12.80;99.90;;;;;;5039479;28;20362;-80
2023/12/13 14:21:20;;;;;;;;;;;12.80;99.90;;;;;;5055721;28;19909;-86
2023/12/13 14:23:46;;;;;;;;;;;12.90;99.90;;;;;;5050633;28;19971;-83
2023/12/13 14:26:11;;;;;;;;;;;12.90;99.90;;;;;;5038587;28;19917;-85
2023/12/13 14:28:37;;;;;;;;;;;13.20;99.90;;;;;;5060433;28;19921;-80
2023/12/13 14:31:03;;;;;;;;;;;13.30;99.90;;;;;;5032505;28;19921;-79
2023/12/13 14:33:29;;;;;;;;;;;13.20;99.90;;;;;;5052951;28;19909;-84
2023/12/13 14:35:55;;;;;;;;;;;13.30;99.90;;;;;;5053262;28;19912;-84
2023/12/13 14:38:20;;;;;;;;;;;13.10;99.90;;;;;;5073730;28;19907;-84
2023/12/13 14:40:47;;;;;;;;;;;12.90;99.90;;;;;;5053340;28;20405;-84